• Join FlightAware (Why Join?)
  • Login
  • US Flag 
06:12AM EDT


 

Airport Tracker/Info


-or-


 

Live Flight TrackerFlight Track Log ✈ ASQ4443 ✈ 02-May-2013 ✈ KEWR - CYQB

Flight Track Log - Related Links

Times and Time Zones

All times are in EDT time to prevent confusion due to time zone crossing. See the ASQ4443 flight status page for this flight to view local times or setup timezone preferences in your user account.

Time Position Orientation Groundspeed Altitude Reporting Facility
EDT Latitude Longitude Course Direction KTS MPH feet Rate Location/Type
09:44PM 40.6500 -74.1833 40° Northeast 182 209 1,900  Level New York TRACON
09:45PM 40.6333 -74.2500 252° West 241 277 4,300 2,640 Climbing New York TRACON
09:46PM 40.6833 -74.2000 37° Northeast 235 270 7,200 2,640 Climbing New York TRACON
09:47PM 40.7000 -74.1333 72° East 218 251 9,600 1,380 Climbing New York TRACON
09:48PM 40.7333 -74.0500 62° Northeast 272 313 10,000 840 Climbing New York TRACON
09:49PM 41.0557 -73.7541 40° Northeast  Level FlightAware Approximate
09:49PM 40.8294 -73.9350 42° Northeast 288 331 12,000  Level Boston Center
09:50PM 40.9056 -73.8625 36° Northeast 309 356 12,600 900 Climbing Boston Center
09:51PM 40.9836 -73.7900 35° Northeast 330 380 13,800 1,200 Climbing Boston Center
09:52PM 41.0614 -73.7147 36° Northeast 344 396 15,000 1,140 Climbing Boston Center
09:53PM 41.1500 -73.6308 35° Northeast 349 402 16,100 960 Climbing Boston Center
09:55PM 41.2319 -73.5497 37° Northeast 362 417 17,200 780 Climbing Boston Center
09:56PM 41.3225 -73.4656 35° Northeast 362 417 17,900 900 Climbing Boston Center
09:57PM 41.4128 -73.3756 37° Northeast 362 417 19,000 960 Climbing Boston Center
09:58PM 41.4883 -73.3047 35° Northeast 362 417 19,900 900 Climbing Boston Center
09:59PM 41.5950 -73.2756 12° North 353 406 21,100 1,080 Climbing Boston Center
10:00PM 41.7200 -73.2828 358° North 353 406 22,300 960 Climbing Boston Center
10:01PM 41.8261 -73.2869 358° North 365 420 23,100 780 Climbing Boston Center
10:02PM 41.9325 -73.2911 358° North 370 426 23,900 780 Climbing Boston Center
10:03PM 42.0386 -73.2983 357° North 375 432 24,700 780 Climbing Boston Center
10:04PM 42.1428 -73.3025 358° North 375 432 25,500 780 Climbing Boston Center
10:05PM 42.2492 -73.2956 North 375 432 26,300 600 Climbing Boston Center
10:06PM 42.3433 -73.2492 20° North 407 468 26,800 300 Climbing Boston Center
10:07PM 42.4458 -73.2083 16° North 402 463 26,900 60 Climbing Boston Center
10:08PM 42.5544 -73.1644 17° North 397 457 27,000  Climbing Boston Center
10:09PM 42.6631 -73.1319 12° North 397 457 27,000  Level Boston Center
10:10PM 42.7736 -73.0906 15° North 397 457 27,000  Level Boston Center
10:11PM 42.8822 -73.0464 17° North 397 457 27,000  Level Boston Center
10:12PM 42.9992 -72.9964 17° North 397 457 27,000  Level Boston Center
10:13PM 43.1078 -72.9547 16° North 392 451 27,000  Level Boston Center
10:14PM 43.2100 -72.9186 14° North 402 463 27,000  Level Boston Center
10:15PM 43.3186 -72.8739 17° North 402 463 27,000  Level Boston Center
10:16PM 43.4292 -72.8289 16° North 402 463 27,000  Level Boston Center
10:17PM 43.5378 -72.7867 16° North 402 463 27,000  Level Boston Center
10:18PM 43.6503 -72.7414 16° North 402 463 27,000  Level Boston Center
10:19PM 43.7569 -72.6931 18° North 402 463 27,000  Level Boston Center
10:20PM 43.8778 -72.6444 16° North 413 475 27,000  Level Boston Center
10:21PM 43.9883 -72.5989 17° North 413 475 27,000  Level Boston Center
10:22PM 44.0989 -72.5558 16° North 407 468 27,000  Level Boston Center
10:23PM 44.2092 -72.5097 17° North 402 463 27,000  Level Boston Center
10:24PM 44.3175 -72.4633 17° North 402 463 27,000  Level Boston Center
10:25PM 44.4300 -72.4197 15° North 402 463 27,000  Level Boston Center
10:26PM 44.5406 -72.3731 17° North 407 468 27,000  Level Boston Center
10:27PM 44.6406 -72.3322 16° North 412 474 27,000  Level Boston Center
10:28PM 44.7528 -72.2881 16° North 412 474 27,000  Level Boston Center
10:29PM 44.8403 -72.2469 18° North 412 474 27,000  Level Boston Center
10:30PM 44.9736 -72.1936 16° North 417 480 27,000  Level Boston Center
10:32PM 45.1667 -72.1000 19° North 420 483 27,000  Level Montreal Center
10:33PM 45.2667 -72.0333 25° Northeast 420 483 27,000  Level Montreal Center
10:34PM 45.3833 -71.9833 17° North 420 483 27,000 -120 Level Montreal Center
10:35PM 45.5000 -71.9500 11° North 420 483 26,800 -1,500 Descending Montreal Center
10:36PM 45.6000 -71.9000 19° North 400 460 24,100 -2,700 Descending Montreal Center
10:37PM 45.7167 -71.8667 11° North 400 460 21,500 -2,820 Descending Montreal Center
10:38PM 45.8167 -71.8000 25° Northeast 390 449 18,500 -3,000 Descending Montreal Center
10:39PM 45.9167 -71.7667 13° North 370 426 15,600 -2,460 Descending Montreal Center
10:40PM 46.0000 -71.7167 23° Northeast 360 414 13,600 -1,500 Descending Montreal Center
10:41PM 46.1000 -71.6833 13° North 360 414 12,700 -600 Descending Montreal Center
10:42PM 46.1833 -71.6833 360° North 300 345 12,400 -960 Descending Montreal Center
10:43PM 46.2500 -71.6500 19° North 260 299 10,800 -1,440 Descending Montreal Center
10:44PM 46.3167 -71.6500 360° North 250 288 9,600 -1,080 Descending Montreal Center
10:45PM 46.3833 -71.6333 10° North 250 288 8,700 -1,140 Descending Montreal Center
10:46PM 46.4500 -71.6167 10° North 240 276 7,400 -1,320 Descending Montreal Center
10:49PM 46.5759 -71.3917 38° Northeast  Level FlightAware Approximate
10:56PM 46.7833 -71.3833 250° West  Level FlightAware Approximate
10:57PM 46.7911 -71.3933 250° West  Level Estimated
10:58PM 46.7911 -71.3933 250° West  Level Estimated
10:59PM 46.7911 -71.3933 250° West  Level Estimated